createdAt,value
2019-03-22T00:00:13.826Z,68.40
2019-03-22T00:02:42.909Z,67.70
2019-03-22T00:05:11.241Z,67.50
2019-03-22T00:07:39.240Z,69.30
2019-03-22T00:10:07.903Z,71.20
2019-03-22T00:12:36.454Z,72.30
2019-03-22T00:15:05.170Z,72.10
2019-03-22T00:17:33.468Z,73.40
2019-03-22T00:20:01.522Z,72.80
2019-03-22T00:22:29.809Z,73.10
2019-03-22T00:24:57.853Z,74.20
2019-03-22T00:27:25.955Z,73.60
2019-03-22T00:29:54.270Z,74.10
2019-03-22T00:32:22.474Z,73.80
2019-03-22T00:34:51.072Z,75.00
2019-03-22T00:37:19.546Z,75.00
2019-03-22T00:39:47.635Z,75.50
2019-03-22T00:42:16.107Z,75.50
2019-03-22T00:44:44.110Z,75.70
2019-03-22T00:47:12.095Z,75.60
2019-03-22T00:49:40.444Z,76.10
2019-03-22T00:52:08.807Z,76.50
2019-03-22T00:54:37.100Z,76.70
2019-03-22T00:57:05.222Z,75.80
2019-03-22T00:59:33.415Z,75.90
2019-03-22T01:02:01.527Z,76.80
2019-03-22T01:04:29.626Z,77.30
2019-03-22T01:06:57.662Z,77.20
2019-03-22T01:09:26.004Z,76.20
2019-03-22T01:11:54.709Z,77.10
2019-03-22T01:14:23.094Z,76.20
2019-03-22T01:16:51.163Z,77.00
2019-03-22T01:19:19.564Z,75.80
2019-03-22T01:21:47.970Z,76.50
2019-03-22T01:24:16.586Z,77.70
2019-03-22T01:26:44.702Z,77.00
2019-03-22T01:29:12.746Z,77.60
2019-03-22T01:31:41.668Z,78.60
2019-03-22T01:34:09.707Z,78.50
2019-03-22T01:36:37.723Z,78.50
2019-03-22T01:39:06.378Z,78.10
2019-03-22T01:41:34.435Z,80.20
2019-03-22T01:44:03.090Z,80.50
2019-03-22T01:46:31.434Z,79.70
2019-03-22T01:48:59.798Z,80.40
2019-03-22T01:51:28.386Z,81.10
2019-03-22T01:53:56.781Z,81.90
2019-03-22T01:56:25.478Z,81.90
2019-03-22T01:58:53.497Z,83.70
2019-03-22T02:01:21.798Z,84.20
2019-03-22T02:03:50.262Z,83.90
2019-03-22T02:06:18.554Z,83.80
2019-03-22T02:08:47.342Z,84.00
2019-03-22T02:11:15.383Z,85.30
2019-03-22T02:13:43.410Z,84.70
2019-03-22T02:16:11.781Z,85.00
2019-03-22T02:18:40.198Z,84.60
2019-03-22T02:21:08.227Z,85.20
2019-03-22T02:23:36.774Z,87.80
2019-03-22T02:26:04.822Z,88.90
2019-03-22T02:28:33.129Z,89.10
2019-03-22T02:31:01.226Z,88.40
2019-03-22T02:33:29.294Z,86.10
2019-03-22T02:35:57.323Z,84.20
2019-03-22T02:38:26.423Z,84.30
2019-03-22T02:40:54.426Z,85.60
2019-03-22T02:43:22.410Z,86.50
2019-03-22T02:45:50.511Z,85.80
2019-03-22T02:48:18.818Z,85.80
2019-03-22T02:50:47.603Z,86.50
2019-03-22T02:53:16.179Z,85.50
2019-03-22T02:55:44.272Z,86.40
2019-03-22T02:58:20.661Z,87.00
2019-03-22T03:00:42.931Z,86.30
2019-03-22T03:03:11.099Z,86.20
2019-03-22T03:05:39.538Z,87.80
2019-03-22T03:08:08.366Z,90.00
2019-03-22T03:10:36.658Z,88.30
2019-03-22T03:13:04.726Z,89.20
2019-03-22T03:15:33.437Z,88.50
2019-03-22T03:18:02.244Z,88.70
2019-03-22T03:20:30.378Z,89.00
2019-03-22T03:22:58.502Z,90.30
2019-03-22T03:25:26.854Z,91.00
2019-03-22T03:27:54.987Z,91.10
2019-03-22T03:30:23.161Z,91.90
2019-03-22T03:32:51.329Z,92.20
2019-03-22T03:35:19.457Z,92.20
2019-03-22T03:37:48.492Z,91.70
2019-03-22T03:40:17.975Z,92.50
2019-03-22T03:42:46.103Z,92.50
2019-03-22T03:45:28.224Z,92.80
2019-03-22T03:47:56.923Z,93.40
2019-03-22T03:50:24.995Z,92.60
2019-03-22T03:52:53.998Z,92.40
2019-03-22T03:55:22.443Z,92.50
2019-03-22T03:57:50.503Z,92.70
2019-03-22T04:00:18.818Z,93.00
2019-03-22T04:02:47.047Z,92.80
2019-03-22T04:05:15.122Z,92.20
2019-03-22T04:07:43.640Z,92.30
2019-03-22T04:10:12.371Z,92.30
2019-03-22T04:12:40.508Z,91.60
2019-03-22T04:15:08.603Z,91.20
2019-03-22T04:17:37.764Z,90.90
2019-03-22T04:20:05.975Z,90.20
2019-03-22T04:22:36.286Z,90.30
2019-03-22T04:25:04.673Z,90.40
2019-03-22T04:27:32.756Z,90.80
2019-03-22T04:30:01.142Z,90.80
2019-03-22T04:32:30.195Z,90.50
2019-03-22T04:34:58.963Z,90.60
2019-03-22T04:37:27.429Z,90.90
2019-03-22T04:39:55.640Z,90.60
2019-03-22T04:42:23.679Z,91.70
2019-03-22T04:44:52.016Z,91.20
2019-03-22T04:47:20.853Z,91.00
2019-03-22T04:49:50.820Z,90.40
2019-03-22T04:52:22.865Z,90.70
2019-03-22T04:54:54.692Z,91.00
2019-03-22T04:57:24.498Z,91.10
2019-03-22T04:59:53.554Z,90.90
2019-03-22T05:02:22.325Z,90.90
2019-03-22T05:04:51.115Z,90.20
2019-03-22T05:07:20.383Z,91.10
2019-03-22T05:09:50.282Z,91.60
2019-03-22T05:12:20.143Z,92.10
2019-03-22T05:14:49.119Z,92.70
2019-03-22T05:17:17.885Z,92.70
2019-03-22T05:19:50.242Z,93.80
2019-03-22T05:22:20.822Z,94.60
2019-03-22T05:24:49.139Z,93.90
2019-03-22T05:27:18.669Z,93.60
2019-03-22T05:29:47.604Z,93.00
2019-03-22T05:32:17.349Z,92.20
2019-03-22T05:34:45.358Z,92.20
2019-03-22T05:37:13.410Z,93.00
2019-03-22T05:39:41.549Z,92.80
2019-03-22T05:42:10.265Z,92.80
2019-03-22T05:44:38.539Z,93.70
2019-03-22T05:47:06.853Z,93.10
2019-03-22T05:49:35.182Z,93.40
2019-03-22T05:52:03.426Z,93.10
2019-03-22T05:54:34.263Z,92.90
2019-03-22T05:57:12.807Z,92.90
2019-03-22T05:59:41.912Z,93.30
2019-03-22T06:02:03.613Z,93.70
2019-03-22T06:04:31.718Z,93.90
2019-03-22T06:06:59.691Z,93.10
2019-03-22T06:09:28.146Z,93.60
2019-03-22T06:11:56.910Z,93.30
2019-03-22T06:14:25.042Z,92.80
2019-03-22T06:16:53.062Z,92.20
2019-03-22T06:19:21.435Z,92.20
2019-03-22T06:21:49.811Z,93.50
2019-03-22T06:24:18.212Z,94.20
2019-03-22T06:26:46.947Z,93.30
2019-03-22T06:29:14.950Z,93.70
2019-03-22T06:31:43.039Z,93.00
2019-03-22T06:34:11.198Z,92.70
2019-03-22T06:36:39.227Z,93.00
2019-03-22T06:39:09.115Z,92.80
2019-03-22T06:41:37.879Z,92.20
2019-03-22T06:44:07.554Z,91.70
2019-03-22T06:46:35.878Z,91.10
2019-03-22T06:49:04.302Z,91.80
2019-03-22T06:51:32.317Z,91.10
2019-03-22T06:54:00.672Z,91.40
2019-03-22T06:56:28.970Z,91.20
2019-03-22T06:58:57.000Z,90.20
2019-03-22T07:01:25.814Z,89.40
2019-03-22T07:03:54.106Z,88.00
2019-03-22T07:06:22.122Z,85.70
2019-03-22T07:08:51.608Z,81.10
2019-03-22T07:11:19.691Z,68.20
2019-03-22T07:13:48.056Z,64.60
2019-03-22T07:16:16.102Z,66.80
2019-03-22T07:18:54.443Z,69.00
2019-03-22T07:21:22.593Z,63.50
2019-03-22T07:23:53.046Z,55.60
2019-03-22T07:26:39.178Z,48.30
2019-03-22T07:29:16.091Z,44.10
2019-03-22T07:31:44.232Z,40.00
2019-03-22T07:34:12.382Z,38.30
2019-03-22T07:36:41.209Z,36.40
2019-03-22T07:39:09.354Z,35.50
2019-03-22T07:41:38.175Z,34.40
2019-03-22T07:44:06.311Z,31.00
2019-03-22T07:46:34.430Z,30.00
2019-03-22T07:49:02.510Z,31.30
2019-03-22T07:51:30.830Z,31.30
2019-03-22T07:53:59.212Z,31.00
2019-03-22T07:56:27.826Z,30.10
2019-03-22T07:58:56.195Z,29.10
2019-03-22T08:01:24.504Z,28.20
2019-03-22T08:03:52.893Z,27.50
2019-03-22T08:06:22.146Z,26.70
2019-03-22T08:08:51.076Z,25.80
2019-03-22T08:11:19.973Z,25.60
2019-03-22T08:13:49.241Z,24.30
2019-03-22T08:16:18.241Z,23.20
2019-03-22T08:18:47.213Z,22.70
2019-03-22T08:21:15.355Z,22.40
2019-03-22T08:23:44.130Z,22.90
2019-03-22T08:26:12.520Z,23.50
2019-03-22T08:28:40.558Z,23.70
2019-03-22T08:31:09.318Z,24.30
2019-03-22T08:33:37.758Z,24.70
2019-03-22T08:36:06.180Z,25.90
2019-03-22T08:38:34.591Z,26.50
2019-03-22T08:41:03.274Z,26.70
2019-03-22T08:43:31.718Z,27.20
2019-03-22T08:45:59.889Z,27.10
2019-03-22T08:48:28.407Z,26.60
2019-03-22T08:50:57.687Z,25.60
2019-03-22T08:53:27.027Z,24.70
2019-03-22T08:55:55.107Z,24.40
2019-03-22T08:58:24.213Z,23.90
2019-03-22T09:00:57.775Z,23.60
2019-03-22T09:03:23.302Z,23.70
2019-03-22T09:05:52.800Z,23.60
2019-03-22T09:08:21.388Z,23.70
2019-03-22T09:10:50.334Z,23.40
2019-03-22T09:13:18.405Z,23.70
2019-03-22T09:15:46.986Z,23.60
2019-03-22T09:18:15.655Z,23.30
2019-03-22T09:20:45.607Z,23.10
2019-03-22T09:23:14.059Z,22.70
2019-03-22T09:25:42.201Z,21.70
2019-03-22T09:28:10.498Z,21.40
2019-03-22T09:30:38.630Z,21.40
2019-03-22T09:33:07.794Z,22.20
2019-03-22T09:35:35.938Z,22.60
2019-03-22T09:38:12.861Z,22.70
2019-03-22T09:40:34.628Z,22.20
2019-03-22T09:43:02.762Z,21.70
2019-03-22T09:45:30.859Z,21.40
2019-03-22T09:47:59.010Z,20.90
2019-03-22T09:50:27.145Z,19.90
2019-03-22T09:52:56.546Z,20.10
2019-03-22T09:55:25.438Z,19.90
2019-03-22T09:57:54.132Z,19.50
2019-03-22T10:00:32.873Z,19.70
2019-03-22T10:03:02.150Z,20.10
2019-03-22T10:05:30.567Z,20.40
2019-03-22T10:07:58.797Z,20.30
2019-03-22T10:10:27.627Z,19.70
2019-03-22T10:12:56.040Z,20.00
2019-03-22T10:15:24.330Z,19.20
2019-03-22T10:17:54.396Z,18.40
2019-03-22T10:20:22.943Z,18.30
2019-03-22T10:22:51.624Z,18.20
2019-03-22T10:25:20.587Z,18.00
2019-03-22T10:27:49.823Z,18.10
2019-03-22T10:30:18.186Z,17.20
2019-03-22T10:32:46.227Z,17.70
2019-03-22T10:35:25.517Z,17.90
2019-03-22T10:37:44.600Z,17.60
2019-03-22T10:40:28.640Z,17.40
2019-03-22T10:42:57.402Z,17.20
2019-03-22T10:45:25.903Z,17.10
2019-03-22T10:47:53.983Z,16.80
2019-03-22T10:50:25.105Z,16.80
2019-03-22T10:52:53.700Z,15.70
2019-03-22T10:55:29.606Z,15.90
2019-03-22T10:57:55.354Z,15.60
2019-03-22T11:00:22.647Z,15.70
2019-03-22T11:02:51.267Z,15.80
2019-03-22T11:05:19.622Z,15.90
2019-03-22T11:07:48.340Z,15.50
2019-03-22T11:10:16.516Z,15.60
2019-03-22T11:12:44.722Z,15.20
2019-03-22T11:15:13.184Z,14.90
2019-03-22T11:17:41.841Z,14.60
2019-03-22T11:20:11.526Z,14.80
2019-03-22T11:22:40.045Z,14.40
2019-03-22T11:25:08.884Z,15.10
2019-03-22T11:27:38.643Z,15.50
2019-03-22T11:30:08.159Z,16.70
2019-03-22T11:32:36.792Z,16.90
2019-03-22T11:35:05.744Z,16.80
2019-03-22T11:37:34.046Z,16.50
2019-03-22T11:40:02.282Z,16.10
2019-03-22T11:42:30.988Z,15.40
2019-03-22T11:44:59.397Z,15.10
2019-03-22T11:47:27.770Z,15.30
2019-03-22T11:49:56.435Z,15.20
2019-03-22T11:52:24.579Z,15.60
2019-03-22T11:54:53.773Z,16.20
2019-03-22T11:57:22.232Z,16.00
2019-03-22T11:59:50.950Z,15.90
2019-03-22T12:02:22.631Z,16.00
2019-03-22T12:04:51.270Z,15.40
2019-03-22T12:07:19.891Z,15.10
2019-03-22T12:09:47.973Z,15.90
2019-03-22T12:12:16.127Z,15.70
2019-03-22T12:14:45.483Z,15.20
2019-03-22T12:17:13.618Z,15.50
2019-03-22T12:19:41.610Z,15.60
2019-03-22T12:22:17.711Z,15.90
2019-03-22T12:24:46.463Z,16.20
2019-03-22T12:27:14.612Z,16.00
2019-03-22T12:29:43.351Z,15.70
2019-03-22T12:32:11.805Z,15.90
2019-03-22T12:34:40.110Z,15.80
2019-03-22T12:37:08.160Z,15.70
2019-03-22T12:39:36.734Z,15.70
2019-03-22T12:42:04.875Z,15.20
2019-03-22T12:44:33.252Z,15.30
2019-03-22T12:47:02.218Z,15.60
2019-03-22T12:49:31.991Z,15.70
2019-03-22T12:52:01.227Z,16.30
2019-03-22T12:54:30.791Z,16.00
2019-03-22T12:56:58.947Z,16.20
2019-03-22T12:59:27.130Z,17.10
2019-03-22T13:01:56.247Z,17.70
2019-03-22T13:04:24.845Z,17.70
2019-03-22T13:06:53.229Z,17.40
2019-03-22T13:09:22.216Z,17.80
2019-03-22T13:11:50.630Z,18.70
2019-03-22T13:14:18.917Z,18.70
2019-03-22T13:16:47.516Z,19.20
2019-03-22T13:19:17.731Z,18.80
2019-03-22T13:21:45.826Z,19.30
2019-03-22T13:24:13.838Z,19.60
2019-03-22T13:26:42.182Z,20.00
2019-03-22T13:29:10.290Z,19.50
2019-03-22T13:31:38.391Z,19.30
2019-03-22T13:34:06.939Z,19.40
2019-03-22T13:36:35.009Z,20.00
2019-03-22T13:39:04.858Z,20.60
2019-03-22T13:41:33.175Z,20.60
2019-03-22T13:44:01.556Z,20.80
2019-03-22T13:46:39.734Z,20.90
2019-03-22T13:49:00.909Z,21.10
2019-03-22T13:51:29.875Z,21.80
2019-03-22T13:53:58.183Z,21.90
2019-03-22T13:56:26.314Z,22.10
2019-03-22T13:58:55.918Z,22.70
2019-03-22T14:01:24.222Z,23.20
2019-03-22T14:03:52.511Z,23.50
2019-03-22T14:06:20.919Z,23.40
2019-03-22T14:08:48.966Z,23.80
2019-03-22T14:11:17.291Z,23.90
2019-03-22T14:13:45.539Z,24.00
2019-03-22T14:16:13.656Z,24.40
2019-03-22T14:18:41.658Z,24.50
2019-03-22T14:21:10.168Z,24.40
2019-03-22T14:23:38.775Z,24.60
2019-03-22T14:26:06.921Z,25.20
2019-03-22T14:28:35.094Z,25.70
2019-03-22T14:31:03.300Z,25.90
2019-03-22T14:33:31.409Z,26.10
2019-03-22T14:35:59.694Z,26.10
2019-03-22T14:38:28.338Z,26.00
2019-03-22T14:40:56.617Z,25.90
2019-03-22T14:43:25.540Z,25.90
2019-03-22T14:45:53.655Z,25.90
2019-03-22T14:48:21.962Z,26.30
2019-03-22T14:50:52.098Z,26.20
2019-03-22T14:53:20.418Z,26.70
2019-03-22T14:55:48.442Z,26.40
2019-03-22T14:58:16.534Z,26.50
2019-03-22T15:00:44.913Z,26.70
2019-03-22T15:03:25.715Z,26.80
2019-03-22T15:05:56.070Z,26.70
2019-03-22T15:08:24.162Z,26.70
2019-03-22T15:10:52.418Z,27.00
2019-03-22T15:13:23.473Z,27.10
2019-03-22T15:16:16.975Z,27.40
2019-03-22T15:19:08.167Z,27.10
2019-03-22T15:22:04.551Z,27.20
2019-03-22T15:25:07.210Z,27.00
2019-03-22T15:27:52.740Z,27.00
2019-03-22T15:30:39.292Z,27.10
2019-03-22T15:33:43.302Z,26.70
2019-03-22T15:36:31.723Z,27.20
2019-03-22T15:39:18.045Z,27.60
2019-03-22T15:41:46.846Z,27.70
2019-03-22T15:44:15.082Z,28.10
2019-03-22T15:46:43.462Z,27.90
2019-03-22T15:49:12.287Z,27.90
2019-03-22T15:51:40.703Z,28.00
2019-03-22T15:54:09.118Z,27.90
2019-03-22T15:56:37.236Z,28.10
2019-03-22T15:59:05.284Z,28.60
2019-03-22T16:01:33.603Z,28.50
2019-03-22T16:04:02.679Z,28.30
2019-03-22T16:06:31.122Z,28.40
2019-03-22T16:09:00.591Z,28.90
2019-03-22T16:11:29.083Z,29.20
2019-03-22T16:13:58.886Z,29.40
2019-03-22T16:16:28.073Z,29.50
2019-03-22T16:18:57.708Z,29.80
2019-03-22T16:21:25.759Z,29.90
2019-03-22T16:23:54.548Z,30.00
2019-03-22T16:26:22.974Z,30.10
2019-03-22T16:28:52.742Z,30.10
2019-03-22T16:31:21.018Z,30.10
2019-03-22T16:33:54.373Z,30.00
2019-03-22T16:36:20.240Z,30.20
2019-03-22T16:38:51.664Z,30.30
2019-03-22T16:41:20.135Z,30.50
2019-03-22T16:43:49.035Z,31.00
2019-03-22T16:46:17.438Z,31.10
2019-03-22T16:48:45.505Z,31.30
2019-03-22T16:51:13.638Z,31.10
2019-03-22T16:53:41.914Z,31.10
2019-03-22T16:56:10.336Z,31.30
2019-03-22T16:58:39.711Z,31.40
2019-03-22T17:01:07.921Z,31.80
2019-03-22T17:03:36.201Z,31.90
2019-03-22T17:06:04.510Z,32.10
2019-03-22T17:08:32.767Z,32.20
2019-03-22T17:11:00.919Z,32.60
2019-03-22T17:13:29.270Z,33.20
2019-03-22T17:15:58.145Z,33.40
2019-03-22T17:18:26.576Z,34.00
2019-03-22T17:20:54.730Z,34.40
2019-03-22T17:23:23.183Z,34.00
2019-03-22T17:25:51.607Z,34.00
2019-03-22T17:28:21.033Z,34.50
2019-03-22T17:30:50.533Z,34.90
2019-03-22T17:33:19.521Z,35.10
2019-03-22T17:35:47.648Z,35.20
2019-03-22T17:38:16.064Z,35.20
2019-03-22T17:40:44.150Z,35.20
2019-03-22T17:43:12.158Z,35.50
2019-03-22T17:45:40.214Z,35.40
2019-03-22T17:48:08.172Z,35.20
2019-03-22T17:50:36.875Z,35.20
2019-03-22T17:53:05.142Z,35.30
2019-03-22T17:55:33.206Z,35.50
2019-03-22T17:58:01.458Z,35.90
2019-03-22T18:00:29.602Z,36.30
2019-03-22T18:02:58.058Z,36.00
2019-03-22T18:05:26.098Z,36.30
2019-03-22T18:07:55.120Z,36.10
2019-03-22T18:10:23.218Z,36.20
2019-03-22T18:12:52.543Z,36.40
2019-03-22T18:15:20.630Z,36.50
2019-03-22T18:17:49.245Z,36.50
2019-03-22T18:20:17.447Z,37.10
2019-03-22T18:22:45.912Z,37.70
2019-03-22T18:25:15.806Z,37.70
2019-03-22T18:27:44.041Z,37.90
2019-03-22T18:30:12.258Z,37.90
2019-03-22T18:32:41.690Z,38.00
2019-03-22T18:35:10.174Z,38.10
2019-03-22T18:37:38.684Z,38.20
2019-03-22T18:40:07.259Z,38.40
2019-03-22T18:42:35.414Z,38.60
2019-03-22T18:45:03.992Z,39.20
2019-03-22T18:47:31.971Z,39.80
2019-03-22T18:50:00.032Z,40.00
2019-03-22T18:52:28.387Z,40.70
2019-03-22T18:54:56.548Z,40.90
2019-03-22T18:57:27.891Z,41.10
2019-03-22T18:59:56.246Z,40.80
2019-03-22T19:02:24.561Z,40.80
2019-03-22T19:04:52.954Z,40.80
2019-03-22T19:07:21.242Z,41.00
2019-03-22T19:09:49.611Z,40.90
2019-03-22T19:12:18.032Z,41.30
2019-03-22T19:14:46.426Z,41.60
2019-03-22T19:17:14.730Z,41.80
2019-03-22T19:19:42.771Z,42.00
2019-03-22T19:22:10.775Z,42.50
2019-03-22T19:24:39.006Z,43.00
2019-03-22T19:27:07.371Z,43.20
2019-03-22T19:29:36.038Z,43.70
2019-03-22T19:32:13.244Z,44.50
2019-03-22T19:34:34.382Z,45.10
2019-03-22T19:37:03.175Z,45.40
2019-03-22T19:39:31.542Z,46.10
2019-03-22T19:41:59.663Z,46.50
2019-03-22T19:44:27.873Z,46.60
2019-03-22T19:46:56.297Z,46.80
2019-03-22T19:49:24.598Z,47.30
2019-03-22T19:51:53.127Z,47.60
2019-03-22T19:54:21.458Z,47.40
2019-03-22T19:56:49.921Z,47.60
2019-03-22T19:59:18.017Z,48.30
2019-03-22T20:01:46.155Z,48.80
2019-03-22T20:04:14.482Z,48.90
2019-03-22T20:06:42.619Z,50.00
2019-03-22T20:09:11.138Z,50.40
2019-03-22T20:11:39.624Z,50.80
2019-03-22T20:14:08.809Z,51.00
2019-03-22T20:16:37.225Z,51.70
2019-03-22T20:19:05.683Z,51.80
2019-03-22T20:21:33.755Z,52.10
2019-03-22T20:24:01.763Z,53.00
2019-03-22T20:26:29.951Z,53.70
2019-03-22T20:28:57.964Z,54.00
2019-03-22T20:31:26.506Z,54.80
2019-03-22T20:33:54.549Z,55.00
2019-03-22T20:36:22.614Z,55.80
2019-03-22T20:38:50.655Z,56.00
2019-03-22T20:41:19.678Z,56.20
2019-03-22T20:43:48.098Z,56.50
2019-03-22T20:46:16.239Z,56.70
2019-03-22T20:48:44.538Z,57.20
2019-03-22T20:51:12.662Z,57.90
2019-03-22T20:53:41.084Z,58.00
2019-03-22T20:56:09.803Z,59.00
2019-03-22T20:58:38.294Z,59.50
2019-03-22T21:01:07.143Z,60.40
2019-03-22T21:03:35.389Z,60.00
2019-03-22T21:06:04.573Z,61.10
2019-03-22T21:08:32.870Z,61.80
2019-03-22T21:11:00.935Z,62.00
2019-03-22T21:13:29.391Z,62.80
2019-03-22T21:15:57.506Z,63.30
2019-03-22T21:18:25.575Z,61.70
2019-03-22T21:20:53.675Z,62.00
2019-03-22T21:23:22.178Z,62.10
2019-03-22T21:25:50.310Z,62.70
2019-03-22T21:28:18.396Z,62.50
2019-03-22T21:30:46.863Z,62.40
2019-03-22T21:33:16.147Z,62.30
2019-03-22T21:35:44.607Z,63.30
2019-03-22T21:38:12.639Z,64.30
2019-03-22T21:40:40.959Z,64.20
2019-03-22T21:43:09.435Z,64.20
2019-03-22T21:45:37.902Z,65.40
2019-03-22T21:48:06.478Z,66.30
2019-03-22T21:50:34.932Z,65.80
2019-03-22T21:53:03.417Z,66.50
2019-03-22T21:55:31.523Z,67.10
2019-03-22T21:57:59.746Z,66.90
2019-03-22T22:00:28.494Z,67.90
2019-03-22T22:02:56.550Z,68.20
2019-03-22T22:05:24.602Z,67.00
2019-03-22T22:07:53.154Z,67.70
2019-03-22T22:10:21.983Z,67.50
2019-03-22T22:12:50.279Z,67.60
2019-03-22T22:15:18.535Z,67.70
2019-03-22T22:17:46.923Z,68.40
2019-03-22T22:20:15.298Z,68.00
2019-03-22T22:22:43.755Z,68.70
2019-03-22T22:25:11.902Z,68.50
2019-03-22T22:27:40.873Z,69.00
2019-03-22T22:30:09.114Z,68.60
2019-03-22T22:32:37.318Z,69.30
2019-03-22T22:35:06.462Z,69.10
2019-03-22T22:37:34.790Z,69.70
2019-03-22T22:40:03.171Z,71.30
2019-03-22T22:42:31.286Z,70.20
2019-03-22T22:44:59.338Z,70.60
2019-03-22T22:47:27.799Z,70.60
2019-03-22T22:49:56.263Z,70.90
2019-03-22T22:52:24.530Z,71.00
2019-03-22T22:54:52.645Z,71.50
2019-03-22T22:57:21.365Z,71.90
2019-03-22T22:59:49.831Z,72.30
2019-03-22T23:02:18.456Z,72.50
2019-03-22T23:04:46.680Z,73.40
2019-03-22T23:07:15.154Z,72.90
2019-03-22T23:09:43.671Z,72.90
2019-03-22T23:12:12.199Z,73.70
2019-03-22T23:14:40.311Z,74.60
2019-03-22T23:17:08.921Z,74.80
2019-03-22T23:19:36.962Z,75.00
2019-03-22T23:22:05.025Z,76.00
2019-03-22T23:24:33.150Z,77.30
2019-03-22T23:27:01.518Z,77.10
2019-03-22T23:29:29.547Z,77.00
2019-03-22T23:31:58.844Z,77.90
2019-03-22T23:34:26.900Z,78.00
2019-03-22T23:36:55.772Z,77.90
2019-03-22T23:39:24.564Z,77.40
2019-03-22T23:41:54.006Z,77.80
2019-03-22T23:44:22.411Z,77.60
2019-03-22T23:46:50.834Z,77.70
2019-03-22T23:49:19.180Z,79.20
2019-03-22T23:51:47.610Z,79.10
2019-03-22T23:54:16.370Z,79.30
2019-03-22T23:56:44.408Z,80.30
2019-03-22T23:59:12.850Z,79.80
